createdAt,value
2018-02-09T00:02:17.990Z,58.60
2018-02-09T00:04:47.731Z,61.17
2018-02-09T00:07:17.148Z,63.80
2018-02-09T00:09:46.478Z,58.43
2018-02-09T00:12:16.083Z,64.93
2018-02-09T00:14:45.510Z,60.10
2018-02-09T00:17:14.889Z,66.83
2018-02-09T00:19:44.873Z,70.87
2018-02-09T00:22:14.412Z,63.80
2018-02-09T00:24:43.648Z,52.93
2018-02-09T00:27:12.954Z,66.57
2018-02-09T00:29:42.211Z,57.30
2018-02-09T00:32:11.512Z,59.37
2018-02-09T00:34:40.781Z,61.03
2018-02-09T00:37:09.996Z,59.20
2018-02-09T00:39:40.030Z,66.73
2018-02-09T00:42:10.085Z,60.70
2018-02-09T00:44:39.410Z,68.53
2018-02-09T00:47:08.640Z,57.60
2018-02-09T00:49:38.899Z,58.23
2018-02-09T00:52:08.848Z,59.80
2018-02-09T00:54:38.123Z,64.63
2018-02-09T00:57:07.345Z,56.40
2018-02-09T00:59:36.697Z,62.13
2018-02-09T01:02:05.914Z,61.60
2018-02-09T01:04:35.278Z,56.13
2018-02-09T01:07:04.532Z,60.50
2018-02-09T01:09:33.798Z,63.50
2018-02-09T01:12:03.047Z,54.27
2018-02-09T01:14:33.061Z,61.73
2018-02-09T01:17:02.315Z,57.17
2018-02-09T01:19:31.548Z,59.27
2018-02-09T01:22:00.833Z,58.70
2018-02-09T01:24:30.108Z,53.57
2018-02-09T01:26:59.380Z,62.07
2018-02-09T01:29:28.615Z,57.67
2018-02-09T01:31:57.868Z,59.47
2018-02-09T01:34:27.070Z,66.80
2018-02-09T01:36:57.075Z,59.70
2018-02-09T01:39:27.083Z,61.63
2018-02-09T01:41:57.110Z,62.97
2018-02-09T01:44:26.366Z,54.57
2018-02-09T01:46:55.597Z,56.83
2018-02-09T01:49:25.627Z,52.43
2018-02-09T01:51:54.974Z,58.77
2018-02-09T01:54:24.246Z,62.50
2018-02-09T01:56:53.545Z,59.57
2018-02-09T01:59:23.020Z,58.67
2018-02-09T02:01:52.854Z,59.03
2018-02-09T02:04:22.293Z,53.93
2018-02-09T02:06:51.523Z,57.20
2018-02-09T02:09:20.821Z,65.43
2018-02-09T02:11:50.023Z,59.53
2018-02-09T02:14:19.282Z,59.87
2018-02-09T02:16:48.516Z,60.60
2018-02-09T02:19:17.746Z,59.50
2018-02-09T02:21:46.960Z,59.77
2018-02-09T02:24:16.858Z,59.63
2018-02-09T02:26:46.091Z,65.50
2018-02-09T02:29:15.363Z,61.83
2018-02-09T02:31:44.618Z,59.57
2018-02-09T02:34:13.947Z,65.63
2018-02-09T02:36:43.940Z,58.37
2018-02-09T02:39:13.979Z,64.17
2018-02-09T02:41:44.012Z,61.83
2018-02-09T02:44:13.226Z,62.63
2018-02-09T02:46:42.455Z,60.20
2018-02-09T02:49:11.686Z,60.43
2018-02-09T02:51:40.986Z,60.33
2018-02-09T02:54:10.224Z,61.97
2018-02-09T02:56:39.443Z,64.50
2018-02-09T02:59:08.798Z,62.80
2018-02-09T03:01:37.997Z,71.77
2018-02-09T03:04:07.219Z,55.73
2018-02-09T03:06:36.505Z,55.87
2018-02-09T03:09:05.834Z,73.63
2018-02-09T03:11:35.069Z,68.40
2018-02-09T03:14:04.304Z,68.07
2018-02-09T03:16:33.530Z,65.63
2018-02-09T03:19:03.572Z,65.13
2018-02-09T03:21:32.851Z,64.47
2018-02-09T03:24:02.107Z,66.97
2018-02-09T03:26:31.318Z,61.57
2018-02-09T03:29:01.355Z,64.03
2018-02-09T03:31:30.648Z,67.50
2018-02-09T03:33:59.876Z,66.23
2018-02-09T03:36:29.908Z,64.23
2018-02-09T03:38:59.160Z,63.07
2018-02-09T03:41:28.543Z,59.43
2018-02-09T03:43:57.840Z,71.93
2018-02-09T03:46:27.070Z,70.03
2018-02-09T03:48:57.079Z,64.40
2018-02-09T03:51:26.413Z,63.20
2018-02-09T03:53:56.657Z,59.07
2018-02-09T03:56:25.874Z,65.33
2018-02-09T03:58:55.114Z,61.03
2018-02-09T04:01:24.362Z,59.27
2018-02-09T04:03:53.574Z,74.60
2018-02-09T04:06:22.832Z,75.97
2018-02-09T04:08:52.882Z,62.80
2018-02-09T04:11:22.136Z,64.43
2018-02-09T04:13:51.357Z,68.33
2018-02-09T04:16:20.626Z,67.80
2018-02-09T04:18:49.835Z,59.73
2018-02-09T04:21:19.858Z,70.03
2018-02-09T04:23:49.080Z,67.00
2018-02-09T04:26:18.483Z,58.17
2018-02-09T04:28:47.874Z,64.07
2018-02-09T04:31:17.138Z,58.97
2018-02-09T04:33:46.362Z,63.87
2018-02-09T04:36:15.603Z,64.73
2018-02-09T04:38:44.808Z,62.83
2018-02-09T04:41:14.233Z,71.90
2018-02-09T04:43:43.605Z,66.17
2018-02-09T04:46:13.041Z,60.70
2018-02-09T04:48:42.409Z,64.90
2018-02-09T04:51:11.598Z,65.83
2018-02-09T04:53:40.846Z,66.40
2018-02-09T04:56:11.039Z,70.50
2018-02-09T04:58:40.369Z,65.37
2018-02-09T05:01:10.510Z,71.37
2018-02-09T05:03:39.751Z,70.93
2018-02-09T05:06:08.981Z,69.60
2018-02-09T05:08:39.012Z,72.33
2018-02-09T05:11:09.083Z,76.50
2018-02-09T05:13:38.362Z,73.30
2018-02-09T05:16:07.621Z,72.90
2018-02-09T05:18:37.791Z,63.67
2018-02-09T05:21:07.048Z,72.17
2018-02-09T05:23:36.402Z,77.17
2018-02-09T05:26:05.648Z,64.40
2018-02-09T05:28:35.620Z,65.53
2018-02-09T05:31:04.950Z,58.83
2018-02-09T05:33:34.178Z,73.93
2018-02-09T05:36:03.431Z,69.27
2018-02-09T05:38:32.688Z,66.90
2018-02-09T05:41:02.077Z,69.53
2018-02-09T05:43:31.299Z,74.87
2018-02-09T05:46:00.579Z,76.37
2018-02-09T05:48:29.837Z,63.17
2018-02-09T05:50:59.053Z,63.70
2018-02-09T05:53:29.034Z,63.87
2018-02-09T05:55:58.870Z,80.20
2018-02-09T05:58:28.131Z,64.10
2018-02-09T06:00:57.360Z,66.43
2018-02-09T06:03:27.358Z,65.60
2018-02-09T06:05:56.562Z,62.80
2018-02-09T06:08:25.817Z,65.40
2018-02-09T06:10:55.864Z,60.43
2018-02-09T06:13:25.855Z,62.30
2018-02-09T06:15:55.131Z,70.60
2018-02-09T06:18:25.139Z,59.43
2018-02-09T06:20:54.480Z,76.67
2018-02-09T06:23:23.728Z,65.93
2018-02-09T06:25:53.780Z,65.40
2018-02-09T06:28:23.014Z,68.70
2018-02-09T06:30:52.295Z,72.10
2018-02-09T06:33:21.510Z,61.07
2018-02-09T06:35:50.853Z,65.17
2018-02-09T06:38:20.291Z,66.17
2018-02-09T06:40:49.543Z,67.27
2018-02-09T06:43:19.217Z,70.87
2018-02-09T06:45:48.519Z,60.37
2018-02-09T06:48:17.792Z,65.47
2018-02-09T06:50:47.062Z,68.17
2018-02-09T06:53:18.023Z,70.17
2018-02-09T06:55:48.022Z,57.80
2018-02-09T06:58:17.245Z,60.17
2018-02-09T07:00:46.458Z,70.80
2018-02-09T07:03:15.670Z,59.70
2018-02-09T07:05:44.931Z,68.27
2018-02-09T07:08:14.208Z,60.33
2018-02-09T07:10:43.438Z,65.80
2018-02-09T07:13:12.706Z,62.07
2018-02-09T07:15:41.938Z,62.63
2018-02-09T07:18:11.202Z,63.97
2018-02-09T07:20:41.343Z,67.80
2018-02-09T07:23:10.590Z,68.17
2018-02-09T07:25:39.821Z,68.63
2018-02-09T07:28:09.060Z,66.87
2018-02-09T07:30:38.432Z,63.37
2018-02-09T07:33:07.670Z,68.93
2018-02-09T07:35:36.881Z,63.23
2018-02-09T07:38:06.128Z,65.03
2018-02-09T07:40:35.357Z,66.23
2018-02-09T07:43:04.748Z,70.80
2018-02-09T07:45:34.032Z,66.33
2018-02-09T07:48:03.303Z,57.87
2018-02-09T07:50:32.851Z,68.33
2018-02-09T07:53:02.125Z,67.77
2018-02-09T07:55:31.380Z,66.10
2018-02-09T07:58:00.699Z,65.43
2018-02-09T08:00:30.086Z,72.80
2018-02-09T08:02:59.361Z,66.23
2018-02-09T08:05:28.602Z,71.30
2018-02-09T08:07:58.595Z,64.13
2018-02-09T08:10:27.906Z,73.43
2018-02-09T08:12:57.152Z,73.47
2018-02-09T08:15:26.386Z,77.90
2018-02-09T08:17:56.410Z,71.97
2018-02-09T08:20:25.678Z,69.00
2018-02-09T08:22:54.899Z,66.57
2018-02-09T08:25:24.133Z,71.17
2018-02-09T08:27:53.390Z,73.60
2018-02-09T08:30:22.651Z,69.93
2018-02-09T08:32:52.080Z,74.90
2018-02-09T08:35:21.299Z,68.23
2018-02-09T08:37:51.330Z,75.27
2018-02-09T08:40:21.327Z,76.37
2018-02-09T08:42:51.368Z,76.83
2018-02-09T08:45:20.618Z,77.83
2018-02-09T08:47:49.873Z,73.07
2018-02-09T08:50:19.168Z,78.57
2018-02-09T08:52:49.401Z,75.40
2018-02-09T08:55:18.678Z,88.50
2018-02-09T08:57:47.969Z,75.70
2018-02-09T09:00:17.960Z,81.47
2018-02-09T09:02:47.211Z,78.97
2018-02-09T09:05:16.470Z,71.40
2018-02-09T09:07:45.722Z,73.40
2018-02-09T09:10:14.991Z,70.70
2018-02-09T09:12:44.227Z,72.87
2018-02-09T09:15:13.454Z,80.43
2018-02-09T09:17:42.910Z,68.40
2018-02-09T09:20:12.388Z,71.60
2018-02-09T09:22:41.588Z,66.70
2018-02-09T09:25:11.610Z,73.10
2018-02-09T09:27:41.082Z,68.30
2018-02-09T09:30:10.353Z,68.30
2018-02-09T09:32:39.547Z,73.80
2018-02-09T09:35:09.042Z,69.80
2018-02-09T09:37:38.259Z,72.70
2018-02-09T09:40:07.507Z,68.10
2018-02-09T09:42:37.502Z,64.70
2018-02-09T09:45:07.540Z,70.67
2018-02-09T09:47:36.856Z,71.77
2018-02-09T09:50:06.094Z,63.57
2018-02-09T09:52:35.434Z,65.97
2018-02-09T09:55:04.667Z,59.30
2018-02-09T09:57:33.899Z,66.80
2018-02-09T10:00:03.106Z,66.77
2018-02-09T10:02:39.841Z,63.30
2018-02-09T10:05:09.101Z,62.37
2018-02-09T10:07:39.125Z,59.73
2018-02-09T10:10:08.471Z,62.00
2018-02-09T10:12:37.706Z,62.27
2018-02-09T10:15:07.799Z,68.27
2018-02-09T10:17:37.218Z,62.30
2018-02-09T10:20:07.212Z,64.13
2018-02-09T10:22:36.444Z,65.20
2018-02-09T10:25:06.425Z,68.13
2018-02-09T10:27:35.654Z,59.47
2018-02-09T10:30:05.626Z,67.90
2018-02-09T10:32:34.855Z,64.70
2018-02-09T10:35:05.567Z,60.43
2018-02-09T10:37:34.998Z,67.33
2018-02-09T10:40:05.102Z,66.50
2018-02-09T10:42:34.363Z,68.30
2018-02-09T10:45:03.590Z,73.20
2018-02-09T10:47:32.821Z,62.87
2018-02-09T10:50:03.032Z,65.83
2018-02-09T10:52:32.286Z,66.97
2018-02-09T10:55:01.499Z,61.70
2018-02-09T10:57:30.706Z,61.93
2018-02-09T10:59:59.938Z,59.77
2018-02-09T11:02:29.929Z,62.67
2018-02-09T11:04:59.230Z,61.33
2018-02-09T11:07:28.472Z,63.33
2018-02-09T11:09:57.720Z,64.60
2018-02-09T11:12:27.010Z,67.13
2018-02-09T11:14:57.050Z,81.77
2018-02-09T11:17:26.280Z,67.97
2018-02-09T11:19:55.515Z,74.53
2018-02-09T11:22:24.746Z,68.30
2018-02-09T11:24:53.944Z,65.30
2018-02-09T11:27:23.959Z,69.77
2018-02-09T11:29:53.268Z,77.50
2018-02-09T11:32:22.509Z,69.20
2018-02-09T11:34:51.744Z,67.13
2018-02-09T11:37:21.017Z,76.00
2018-02-09T11:39:50.277Z,69.17
2018-02-09T11:42:19.550Z,69.67
2018-02-09T11:44:48.858Z,61.83
2018-02-09T11:47:18.850Z,73.87
2018-02-09T11:49:49.063Z,67.57
2018-02-09T11:52:18.301Z,70.43
2018-02-09T11:54:48.318Z,78.43
2018-02-09T11:57:17.635Z,75.77
2018-02-09T11:59:46.859Z,59.10
2018-02-09T12:02:16.069Z,71.13
2018-02-09T12:04:45.329Z,72.67
2018-02-09T12:07:14.583Z,78.40
2018-02-09T12:09:43.863Z,67.73
2018-02-09T12:12:13.411Z,67.40
2018-02-09T12:14:42.555Z,74.70
2018-02-09T12:17:11.784Z,67.03
2018-02-09T12:19:41.794Z,68.63
2018-02-09T12:22:11.000Z,66.03
2018-02-09T12:24:41.030Z,63.63
2018-02-09T12:27:11.013Z,68.97
2018-02-09T12:29:40.343Z,69.73
2018-02-09T12:32:10.320Z,65.73
2018-02-09T12:34:39.565Z,71.00
2018-02-09T12:37:09.552Z,65.73
2018-02-09T12:39:38.887Z,67.10
2018-02-09T12:42:08.062Z,66.33
2018-02-09T12:44:37.318Z,64.40
2018-02-09T12:47:06.576Z,68.33
2018-02-09T12:49:36.570Z,72.23
2018-02-09T12:52:05.793Z,70.20
2018-02-09T12:54:35.810Z,63.43
2018-02-09T12:57:05.827Z,72.83
2018-02-09T12:59:35.167Z,73.97
2018-02-09T13:02:04.397Z,65.73
2018-02-09T13:04:33.581Z,68.10
2018-02-09T13:07:02.840Z,65.90
2018-02-09T13:09:32.058Z,63.90
2018-02-09T13:12:01.273Z,67.07
2018-02-09T13:14:54.119Z,67.67
2018-02-09T13:17:23.293Z,66.33
2018-02-09T13:19:52.526Z,62.53
2018-02-09T13:22:39.603Z,62.00
2018-02-09T13:25:08.800Z,66.10
2018-02-09T13:27:38.059Z,77.80
2018-02-09T13:30:07.249Z,65.30
2018-02-09T13:32:54.244Z,67.63
2018-02-09T13:35:23.502Z,70.97
2018-02-09T13:37:52.765Z,66.30
2018-02-09T13:40:22.013Z,64.73
2018-02-09T13:42:51.994Z,67.53
2018-02-09T13:45:23.008Z,73.33
2018-02-09T13:47:53.783Z,72.37
2018-02-09T13:50:23.026Z,67.37
2018-02-09T13:52:52.266Z,72.70
2018-02-09T13:55:22.255Z,58.33
2018-02-09T13:57:51.478Z,67.90
2018-02-09T14:00:20.734Z,70.53
2018-02-09T14:02:49.988Z,67.30
2018-02-09T14:05:20.149Z,68.00
2018-02-09T14:07:49.346Z,64.07
2018-02-09T14:10:18.731Z,65.20
2018-02-09T14:12:47.957Z,70.47
2018-02-09T14:15:17.198Z,61.47
2018-02-09T14:17:46.409Z,71.23
2018-02-09T14:20:15.634Z,65.50
2018-02-09T14:22:44.870Z,73.63
2018-02-09T14:25:14.956Z,66.87
2018-02-09T14:27:44.220Z,60.00
2018-02-09T14:30:13.442Z,58.47
2018-02-09T14:32:42.706Z,65.50
2018-02-09T14:35:11.942Z,58.50
2018-02-09T14:37:41.218Z,57.37
2018-02-09T14:40:10.429Z,56.83
2018-02-09T14:42:39.674Z,56.93
2018-02-09T14:45:08.944Z,61.53
2018-02-09T14:47:38.197Z,56.13
2018-02-09T14:50:08.230Z,72.27
2018-02-09T14:52:37.466Z,66.77
2018-02-09T14:55:06.712Z,52.60
2018-02-09T14:57:35.946Z,52.50
2018-02-09T15:00:05.129Z,51.47
2018-02-09T15:02:34.353Z,53.53
2018-02-09T15:05:03.856Z,56.30
2018-02-09T15:07:33.140Z,48.83
2018-02-09T15:10:02.363Z,54.10
2018-02-09T15:12:31.645Z,46.43
2018-02-09T15:15:00.886Z,56.50
2018-02-09T15:17:31.022Z,51.27
2018-02-09T15:20:00.350Z,54.93
2018-02-09T15:22:29.779Z,46.43
2018-02-09T15:24:59.191Z,51.97
2018-02-09T15:27:28.419Z,55.07
2018-02-09T15:29:57.646Z,41.27
2018-02-09T15:32:27.005Z,47.03
2018-02-09T15:34:56.220Z,48.80
2018-02-09T15:37:25.475Z,47.60
2018-02-09T15:39:55.636Z,57.50
2018-02-09T15:42:24.981Z,52.60
2018-02-09T15:44:54.251Z,50.30
2018-02-09T15:47:23.463Z,44.20
2018-02-09T15:49:52.762Z,46.13
2018-02-09T15:52:22.062Z,47.10
2018-02-09T15:54:51.366Z,46.03
2018-02-09T15:57:22.466Z,48.37
2018-02-09T15:59:52.454Z,46.27
2018-02-09T16:02:21.701Z,51.67
2018-02-09T16:04:50.924Z,48.43
2018-02-09T16:07:20.136Z,48.87
2018-02-09T16:09:49.371Z,47.37
2018-02-09T16:12:19.409Z,49.23
2018-02-09T16:14:48.629Z,39.70
2018-02-09T16:17:17.994Z,49.03
2018-02-09T16:19:47.230Z,48.10
2018-02-09T16:22:16.499Z,48.93
2018-02-09T16:24:45.726Z,47.80
2018-02-09T16:27:14.965Z,46.03
2018-02-09T16:29:44.169Z,44.93
2018-02-09T16:32:13.466Z,40.10
2018-02-09T16:34:43.485Z,47.37
2018-02-09T16:37:13.527Z,45.00
2018-02-09T16:39:42.738Z,35.30
2018-02-09T16:42:12.920Z,42.90
2018-02-09T16:44:42.972Z,42.10
2018-02-09T16:47:12.219Z,40.00
2018-02-09T16:49:42.233Z,38.77
2018-02-09T16:52:11.495Z,39.97
2018-02-09T16:54:40.758Z,39.60
2018-02-09T16:57:10.021Z,44.00
2018-02-09T16:59:39.234Z,38.60
2018-02-09T17:02:08.474Z,35.10
2018-02-09T17:04:37.747Z,39.83
2018-02-09T17:07:07.784Z,42.73
2018-02-09T17:09:37.014Z,43.93
2018-02-09T17:12:06.306Z,37.47
2018-02-09T17:14:35.530Z,40.90
2018-02-09T17:17:04.947Z,41.30
2018-02-09T17:19:34.981Z,41.13
2018-02-09T17:22:04.234Z,37.40
2018-02-09T17:24:33.471Z,43.30
2018-02-09T17:27:02.736Z,36.50
2018-02-09T17:29:32.018Z,40.93
2018-02-09T17:32:01.423Z,40.97
2018-02-09T17:34:30.637Z,44.03
2018-02-09T17:37:01.247Z,39.27
2018-02-09T17:39:30.498Z,32.93
2018-02-09T17:42:00.509Z,38.13
2018-02-09T17:44:30.491Z,31.43
2018-02-09T17:46:59.789Z,35.33
2018-02-09T17:49:29.078Z,40.73
2018-02-09T17:51:59.095Z,36.27
2018-02-09T17:54:28.346Z,35.03
2018-02-09T17:56:58.348Z,36.53
2018-02-09T17:59:28.414Z,42.20
2018-02-09T18:01:57.679Z,38.27
2018-02-09T18:04:27.723Z,34.27
2018-02-09T18:06:56.968Z,39.93
2018-02-09T18:09:26.277Z,45.53
2018-02-09T18:11:55.476Z,41.70
2018-02-09T18:14:24.709Z,33.10
2018-02-09T18:16:53.929Z,41.17
2018-02-09T18:19:23.155Z,38.40
2018-02-09T18:21:52.393Z,38.77
2018-02-09T18:24:21.730Z,39.33
2018-02-09T18:26:51.794Z,36.50
2018-02-09T18:29:21.036Z,39.27
2018-02-09T18:31:50.301Z,42.83
2018-02-09T18:34:19.517Z,40.37
2018-02-09T18:36:48.791Z,35.47
2018-02-09T18:39:18.779Z,40.23
2018-02-09T18:41:47.995Z,42.40
2018-02-09T18:44:17.982Z,45.73
2018-02-09T18:46:47.207Z,40.57
2018-02-09T18:49:16.435Z,41.37
2018-02-09T18:51:46.474Z,56.80
2018-02-09T18:54:15.803Z,57.50
2018-02-09T18:56:45.070Z,46.23
2018-02-09T18:59:14.313Z,44.37
2018-02-09T19:01:43.541Z,46.73
2018-02-09T19:04:12.830Z,50.50
2018-02-09T19:06:42.810Z,40.90
2018-02-09T19:09:12.113Z,40.07
2018-02-09T19:11:41.308Z,45.83
2018-02-09T19:14:10.570Z,43.47
2018-02-09T19:16:39.814Z,40.73
2018-02-09T19:19:09.066Z,46.83
2018-02-09T19:21:38.315Z,43.67
2018-02-09T19:24:08.327Z,46.60
2018-02-09T19:26:38.371Z,47.03
2018-02-09T19:29:08.364Z,46.73
2018-02-09T19:31:38.365Z,43.03
2018-02-09T19:34:09.092Z,40.33
2018-02-09T19:36:38.369Z,37.10
2018-02-09T19:39:07.630Z,43.53
2018-02-09T19:41:37.836Z,51.23
2018-02-09T19:44:07.088Z,43.23
2018-02-09T19:46:36.383Z,38.87
2018-02-09T19:49:05.610Z,35.03
2018-02-09T19:51:36.357Z,33.60
2018-02-09T19:54:05.603Z,37.63
2018-02-09T19:56:35.041Z,36.53
2018-02-09T19:59:04.260Z,44.50
2018-02-09T20:01:34.260Z,30.40
2018-02-09T20:04:03.677Z,37.33
2018-02-09T20:06:33.039Z,34.23
2018-02-09T20:09:02.342Z,32.53
2018-02-09T20:11:31.552Z,27.40
2018-02-09T20:14:00.835Z,34.70
2018-02-09T20:16:30.051Z,31.33
2018-02-09T20:18:59.302Z,31.10
2018-02-09T20:21:32.212Z,30.63
2018-02-09T20:24:02.360Z,37.27
2018-02-09T20:26:31.634Z,34.60
2018-02-09T20:29:00.887Z,28.47
2018-02-09T20:31:30.898Z,26.70
2018-02-09T20:34:00.931Z,25.30
2018-02-09T20:36:30.363Z,24.33
2018-02-09T20:39:00.329Z,33.13
2018-02-09T20:41:29.755Z,27.60
2018-02-09T20:43:58.991Z,24.90
2018-02-09T20:46:28.290Z,30.53
2018-02-09T20:48:57.518Z,24.03
2018-02-09T20:51:26.796Z,27.20
2018-02-09T20:53:56.061Z,29.90
2018-02-09T20:56:25.389Z,29.47
2018-02-09T20:58:54.637Z,26.60
2018-02-09T21:01:23.940Z,31.67
2018-02-09T21:03:53.206Z,39.77
2018-02-09T21:06:22.459Z,56.20
2018-02-09T21:08:52.465Z,70.70
2018-02-09T21:11:22.458Z,59.67
2018-02-09T21:13:52.536Z,56.23
2018-02-09T21:16:22.719Z,59.90
2018-02-09T21:18:53.021Z,96.20
2018-02-09T21:21:23.031Z,137.33
2018-02-09T21:23:52.304Z,82.43
2018-02-09T21:26:21.555Z,75.53
2018-02-09T21:28:50.787Z,81.67
2018-02-09T21:31:20.055Z,85.77
2018-02-09T21:33:49.348Z,107.43
2018-02-09T21:36:18.570Z,32.97
2018-02-09T21:38:47.807Z,23.63
2018-02-09T21:41:18.559Z,29.27
2018-02-09T21:43:48.521Z,24.60
2018-02-09T21:46:17.746Z,27.70
2018-02-09T21:48:46.994Z,26.20
2018-02-09T21:51:16.217Z,30.53
2018-02-09T21:53:46.286Z,27.00
2018-02-09T21:56:16.281Z,24.40
2018-02-09T21:58:45.495Z,32.27
2018-02-09T22:01:15.489Z,26.03
2018-02-09T22:03:46.220Z,25.20
2018-02-09T22:06:15.467Z,20.40
2018-02-09T22:08:44.752Z,28.70
2018-02-09T22:11:14.774Z,28.10
2018-02-09T22:13:43.999Z,24.87
2018-02-09T22:16:13.428Z,22.87
2018-02-09T22:18:42.935Z,21.73
2018-02-09T22:21:12.277Z,28.57
2018-02-09T22:23:42.390Z,27.70
2018-02-09T22:26:12.406Z,26.07
2018-02-09T22:28:42.586Z,27.50
2018-02-09T22:31:11.825Z,24.57
2018-02-09T22:33:41.043Z,27.13
2018-02-09T22:36:10.329Z,26.77
2018-02-09T22:38:40.298Z,26.13
2018-02-09T22:41:09.538Z,27.40
2018-02-09T22:43:38.832Z,23.23
2018-02-09T22:46:08.190Z,29.43
2018-02-09T22:48:37.454Z,26.87
2018-02-09T22:51:06.709Z,20.90
2018-02-09T22:53:35.957Z,28.80
2018-02-09T22:56:06.061Z,24.70
2018-02-09T22:58:35.281Z,20.77
2018-02-09T23:01:04.623Z,24.47
2018-02-09T23:03:33.871Z,26.90
2018-02-09T23:06:03.099Z,29.93
2018-02-09T23:08:32.334Z,27.07
2018-02-09T23:11:02.372Z,25.97
2018-02-09T23:13:31.593Z,24.13
2018-02-09T23:16:00.794Z,29.80
2018-02-09T23:18:30.018Z,23.27
2018-02-09T23:21:00.742Z,23.10
2018-02-09T23:23:30.048Z,28.37
2018-02-09T23:25:59.278Z,25.00
2018-02-09T23:28:29.312Z,27.50
2018-02-09T23:30:58.582Z,29.47
2018-02-09T23:33:28.576Z,25.13
2018-02-09T23:35:57.808Z,28.37
2018-02-09T23:38:27.064Z,26.87
2018-02-09T23:40:56.275Z,32.57
2018-02-09T23:43:25.507Z,29.97
2018-02-09T23:45:54.741Z,23.57
2018-02-09T23:48:23.961Z,26.70
2018-02-09T23:50:53.207Z,27.23
2018-02-09T23:53:22.459Z,26.27
2018-02-09T23:55:51.697Z,26.17
2018-02-09T23:58:20.928Z,26.77
